• Join FlightAware (Why Join?)
  • Login
  • US Flag 
07:16AM EDT


 

Airport Tracker/Info


-or-


 

Live Flight TrackerFlight Track Log ✈ WJA179 ✈ 29-Apr-2012 ✈ CYZF - CYEG

Flight Track Log - Related Links

Times and Time Zones

All times are in EDT time to prevent confusion due to time zone crossing. See the WJA179 flight status page for this flight to view local times or setup timezone preferences in your user account.

Time Position Orientation Groundspeed Altitude Reporting Facility
EDT Latitude Longitude Course Direction KTS MPH feet Rate Location/Type
04:18PM 62.3279 -114.4070 343° North  Level FlightAware Approximate
04:18PM 62.4167 -114.4667 174° South 160 184 2,400  Level Edmonton Center
04:20PM 62.2667 -114.4333 180° South 280 322 7,300 2,700 Climbing Edmonton Center
04:21PM 62.2000 -114.4333 176° South 290 334 10,600 3,000 Climbing Edmonton Center
04:22PM 62.1000 -114.4167 169° South 310 357 13,300 3,000 Climbing Edmonton Center
04:23PM 62.0167 -114.3833 171° South 330 380 16,600 3,300 Climbing Edmonton Center
04:24PM 61.9167 -114.3500 180° South 350 403 19,900 3,000 Climbing Edmonton Center
04:25PM 61.8167 -114.3500 172° South 370 426 22,600 2,520 Climbing Edmonton Center
04:26PM 61.7000 -114.3167 175° South 390 449 25,000 2,400 Climbing Edmonton Center
04:27PM 61.6000 -114.3000 180° South 410 472 27,400 2,220 Climbing Edmonton Center
04:28PM 61.4833 -114.3000 168° South 420 483 29,500 1,920 Climbing Edmonton Center
04:29PM 61.3667 -114.2500 174° South 430 495 31,300 1,920 Climbing Edmonton Center
04:30PM 61.2167 -114.2167 180° South 440 506 33,400 2,040 Climbing Edmonton Center
04:31PM 61.1000 -114.2167 172° South 430 495 35,400 1,680 Climbing Edmonton Center
04:32PM 60.9833 -114.1833 173° South 430 495 36,800 1,200 Climbing Edmonton Center
04:33PM 60.8500 -114.1500 180° South 430 495 37,800 1,080 Climbing Edmonton Center
04:34PM 60.7333 -114.1500 172° South 440 506 39,000 1,080 Climbing Edmonton Center
04:35PM 60.6167 -114.1167 172° South 440 506 40,000 900 Climbing Edmonton Center
04:36PM 60.5000 -114.0833 180° South 440 506 40,900 480 Climbing Edmonton Center
04:37PM 60.3667 -114.0833 172° South 440 506 41,000  Climbing Edmonton Center
04:38PM 60.2500 -114.0500 172° South 440 506 41,000  Level Edmonton Center
04:39PM 60.1333 -114.0167 169° South 440 506 41,000  Level Edmonton Center
04:40PM 60.0000 -113.9667 180° South 450 518 41,000  Level Edmonton Center
04:41PM 59.8667 -113.9667 176° South 440 506 41,000  Level Edmonton Center
04:42PM 59.7500 -113.9500 176° South 440 506 41,000  Level Edmonton Center
04:43PM 59.6167 -113.9333 176° South 440 506 41,000  Level Edmonton Center
04:44PM 59.5000 -113.9167 169° South 440 506 41,000  Level Edmonton Center
04:45PM 59.3667 -113.8667 180° South 440 506 41,000  Level Edmonton Center
04:46PM 59.2500 -113.8667 176° South 450 518 41,000  Level Edmonton Center
04:47PM 59.1333 -113.8500 173° South 440 506 41,000  Level Edmonton Center
04:48PM 59.0000 -113.8167 180° South 440 506 41,000  Level Edmonton Center
04:49PM 58.8833 -113.8167 173° South 440 506 41,000  Level Edmonton Center
04:50PM 58.7333 -113.7833 172° South 440 506 41,000  Level Edmonton Center
04:51PM 58.6167 -113.7500 180° South 430 495 41,000  Level Edmonton Center
04:52PM 58.5000 -113.7500 171° South 430 495 41,000  Level Edmonton Center
04:53PM 58.3833 -113.7167 171° South 430 495 41,000  Level Edmonton Center
04:54PM 58.2667 -113.6833 180° South 430 495 41,000  Level Edmonton Center
04:55PM 58.1333 -113.6833 175° South 430 495 41,000  Level Edmonton Center
04:56PM 58.0333 -113.6667 172° South 430 495 41,000  Level Edmonton Center
04:57PM 57.9000 -113.6333 180° South 430 495 41,000  Level Edmonton Center
04:58PM 57.7833 -113.6333 171° South 430 495 41,000  Level Edmonton Center
04:59PM 57.6667 -113.6000 176° South 430 495 41,000  Level Edmonton Center
05:00PM 57.5500 -113.5833 180° South 430 495 41,000  Level Edmonton Center
05:01PM 57.4000 -113.5833 171° South 430 495 41,000  Level Edmonton Center
05:02PM 57.2833 -113.5500 172° South 440 506 41,000  Level Edmonton Center
05:03PM 57.1500 -113.5167 171° South 440 506 41,000  Level Edmonton Center
05:04PM 57.0333 -113.4833 180° South 440 506 41,000  Level Edmonton Center
05:05PM 56.9167 -113.4833 176° South 440 506 41,000  Level Edmonton Center
05:06PM 56.8000 -113.4667 171° South 440 506 41,000  Level Edmonton Center
05:07PM 56.6833 -113.4333 180° South 440 506 41,000  Level Edmonton Center
05:08PM 56.5500 -113.4333 175° South 440 506 41,000  Level Edmonton Center
05:09PM 56.4333 -113.4167 171° South 440 506 41,000  Level Edmonton Center
05:10PM 56.3167 -113.3833 180° South 440 506 41,000  Level Edmonton Center
05:11PM 56.1833 -113.3833 172° South 440 506 41,000  Level Edmonton Center
05:12PM 56.0500 -113.3500 175° South 440 506 41,000  Level Edmonton Center
05:13PM 55.9333 -113.3333 180° South 440 506 41,000  Level Edmonton Center
05:14PM 55.8000 -113.3333 171° South 440 506 41,000  Level Edmonton Center
05:15PM 55.6833 -113.3000 174° South 440 506 41,000  Level Edmonton Center
05:17PM 55.4333 -113.2500 180° South 440 506 41,000  Level Edmonton Center
05:18PM 55.3167 -113.2500 175° South 440 506 41,000  Level Edmonton Center
05:19PM 55.2000 -113.2333 171° South 440 506 41,000 -600 Level Edmonton Center
05:20PM 55.0833 -113.2000 180° South 440 506 39,800 -2,040 Descending Edmonton Center
05:21PM 54.9333 -113.2000 175° South 440 506 37,000 -2,460 Descending Edmonton Center
05:22PM 54.8167 -113.1833 171° South 440 506 34,900 -2,340 Descending Edmonton Center
05:23PM 54.7000 -113.1500 185° South 420 483 32,400 -2,340 Descending Edmonton Center
05:24PM 54.5833 -113.1667 171° South 420 483 30,300 -2,100 Descending Edmonton Center
05:25PM 54.4667 -113.1333 174° South 400 460 28,300 -2,100 Descending Edmonton Center
05:26PM 54.3667 -113.1167 180° South 380 437 26,200 -2,100 Descending Edmonton Center
05:27PM 54.2667 -113.1167 186° South 370 426 24,200 -2,220 Descending Edmonton Center
05:28PM 54.1667 -113.1333 193° South 350 403 21,800 -2,220 Descending Edmonton Center
05:29PM 54.0833 -113.1667 196° South 340 391 19,800 -1,860 Descending Edmonton Center
05:30PM 53.9833 -113.2167 180° South 330 380 18,100 -1,860 Descending Edmonton Center
05:31PM 53.8833 -113.2167 193° South 330 380 16,100 -1,860 Descending Edmonton Center
05:32PM 53.8000 -113.2500 187° South 320 368 14,400 -1,800 Descending Edmonton Center
05:33PM 53.7167 -113.2667 200° South 310 357 12,600 -1,740 Descending Edmonton Center
05:34PM 53.6333 -113.3167 180° South 310 357 11,000 -1,440 Descending Edmonton Center
05:35PM 53.5500 -113.3167 187° South 300 345 9,800 -1,320 Descending Edmonton Center
05:36PM 53.4667 -113.3333 204° Southwest 280 322 8,400 -1,380 Descending Edmonton Center
05:37PM 53.4000 -113.3833 180° South 280 322 7,100 -1,020 Descending Edmonton Center
05:38PM 53.3333 -113.3833 189° South 260 299 6,400 -780 Descending Edmonton Center
05:39PM 53.2667 -113.4000 202° Southwest 220 253 5,600 -900 Descending Edmonton Center
05:40PM 53.2167 -113.4333 247° West 190 219 4,700 -900 Descending Edmonton Center
05:41PM 53.2000 -113.5000 329° Northwest 150 173 3,900 -780 Descending Edmonton Center
05:42PM 53.2333 -113.5333 310° West 130 150 3,200 -660 Descending Edmonton Center
05:43PM 53.2500 -113.5667 329° Northwest 120 138 2,600 -480 Descending Edmonton Center
05:44PM 53.2833 -113.6000 329° Northwest 120 138 2,300 -300 Descending Edmonton Center